Time;durP1;ratioP1;P1;durP2;ratioP2;P2;SDS_P1;SDS_P2;PMS_P1;PMS_P2;Temp;Humidity;BMP_temperature;BMP_pressure;BME280_temperature;BME280_humidity;BME280_pressure;Samples;Min_cycle;Max_cycle;Signal;HPM_P1;HPM_P2
2021/01/16 00:00:34;;;;;;;22.77;12.10;;;-0.10;99.90;;;;;;4994061;28;20042;-78
2021/01/16 00:03:01;;;;;;;20.35;11.07;;;0.00;99.90;;;;;;4994541;28;20030;-77
2021/01/16 00:05:29;;;;;;;19.88;11.77;;;0.00;99.90;;;;;;4994393;28;20034;-78
2021/01/16 00:08:09;;;;;;;21.13;12.00;;;0.00;99.90;;;;;;4994586;28;20026;-78
2021/01/16 00:10:44;;;;;;;25.05;12.43;;;0.00;99.90;;;;;;4994314;28;20480;-78
2021/01/16 00:13:15;;;;;;;20.23;10.98;;;0.00;99.90;;;;;;4994541;28;20029;-78
2021/01/16 00:15:42;;;;;;;25.73;12.73;;;0.00;99.90;;;;;;4994175;28;20034;-78
2021/01/16 00:18:10;;;;;;;21.58;11.80;;;0.00;99.90;;;;;;4994502;28;20472;-78
2021/01/16 00:20:39;;;;;;;24.58;12.15;;;-0.10;99.90;;;;;;4976060;28;20050;-77
2021/01/16 00:23:06;;;;;;;24.15;12.80;;;0.00;99.90;;;;;;4993690;28;20456;-78
2021/01/16 00:25:33;;;;;;;19.00;11.20;;;-0.10;99.90;;;;;;5006063;28;20053;-78
2021/01/16 00:27:59;;;;;;;24.20;12.52;;;-0.10;99.90;;;;;;4993950;28;20030;-78
2021/01/16 00:30:27;;;;;;;21.65;12.65;;;-0.10;99.90;;;;;;4976251;28;20050;-78
2021/01/16 00:32:54;;;;;;;20.38;10.95;;;-0.10;99.90;;;;;;5012844;28;20037;-78
2021/01/16 00:35:21;;;;;;;22.08;12.38;;;-0.10;99.90;;;;;;4997373;28;20483;-78
2021/01/16 00:37:49;;;;;;;22.63;11.77;;;-0.10;99.90;;;;;;4993898;28;20463;-77
2021/01/16 00:40:24;;;;;;;22.60;11.68;;;-0.10;99.90;;;;;;4993060;28;20064;-78
2021/01/16 00:42:53;;;;;;;21.08;11.63;;;-0.20;99.90;;;;;;4993221;28;20023;-77
2021/01/16 00:45:20;;;;;;;22.35;12.50;;;-0.10;99.90;;;;;;4975527;28;20057;-77
2021/01/16 00:47:48;;;;;;;24.20;11.90;;;-0.10;99.90;;;;;;4993778;28;20038;-78
2021/01/16 00:50:17;;;;;;;20.20;11.85;;;-0.10;99.90;;;;;;4992819;28;20511;-78
2021/01/16 00:52:57;;;;;;;24.42;12.35;;;-0.10;99.90;;;;;;4993823;28;20037;-78
2021/01/16 00:55:26;;;;;;;23.98;12.02;;;-0.10;99.90;;;;;;4991650;28;20054;-78
2021/01/16 00:57:55;;;;;;;20.67;11.35;;;-0.10;99.90;;;;;;4976557;28;20045;-78
2021/01/16 01:00:27;;;;;;;23.95;12.75;;;-0.10;99.90;;;;;;4975404;28;20057;-78
2021/01/16 01:02:55;;;;;;;23.67;12.40;;;-0.10;99.90;;;;;;4991742;28;20046;-78
2021/01/16 01:05:23;;;;;;;20.83;11.75;;;-0.10;99.90;;;;;;4992517;28;20049;-78
2021/01/16 01:07:51;;;;;;;25.95;13.40;;;-0.10;99.90;;;;;;4993435;28;20057;-78
2021/01/16 01:10:27;;;;;;;23.70;11.73;;;-0.10;99.90;;;;;;5009685;28;20049;-78
2021/01/16 01:12:53;;;;;;;26.80;12.73;;;-0.10;99.90;;;;;;4996755;28;20034;-78
2021/01/16 01:15:19;;;;;;;24.70;11.85;;;-0.20;99.90;;;;;;4993088;28;20030;-78
2021/01/16 01:17:52;;;;;;;24.02;12.57;;;-0.10;99.90;;;;;;4993279;28;20037;-78
2021/01/16 01:20:18;;;;;;;25.65;12.55;;;-0.10;99.90;;;;;;4992804;28;20042;-78
2021/01/16 01:22:45;;;;;;;27.10;13.45;;;-0.10;99.90;;;;;;4993229;28;20030;-77
2021/01/16 01:25:11;;;;;;;27.55;13.88;;;-0.10;99.90;;;;;;4992801;28;20057;-77
2021/01/16 01:27:38;;;;;;;24.70;12.98;;;-0.10;99.90;;;;;;4992609;28;20464;-77
2021/01/16 01:30:06;;;;;;;28.48;14.43;;;-0.10;99.90;;;;;;5000183;28;20064;-77
2021/01/16 01:32:32;;;;;;;25.25;11.88;;;-0.10;99.90;;;;;;5004135;28;20049;-77
2021/01/16 01:34:59;;;;;;;21.58;11.57;;;0.00;99.90;;;;;;4993138;28;20031;-77
2021/01/16 01:37:25;;;;;;;23.98;13.68;;;0.00;99.90;;;;;;4992716;28;20038;-78
2021/01/16 01:39:52;;;;;;;23.77;12.98;;;0.00;99.90;;;;;;4992792;28;20514;-77
2021/01/16 01:42:19;;;;;;;22.55;13.02;;;0.00;99.90;;;;;;4992585;28;20057;-78
2021/01/16 01:44:46;;;;;;;25.27;13.90;;;0.00;99.90;;;;;;4977018;28;20034;-77
2021/01/16 01:47:14;;;;;;;24.92;12.40;;;0.00;99.90;;;;;;4992810;28;20490;-77
2021/01/16 01:49:41;;;;;;;21.83;11.93;;;0.10;99.90;;;;;;4992191;28;20041;-78
2021/01/16 01:52:09;;;;;;;23.88;12.82;;;0.00;99.90;;;;;;4992950;28;20387;-78
2021/01/16 01:54:36;;;;;;;22.67;12.45;;;0.00;99.90;;;;;;4992629;28;20046;-78
2021/01/16 01:57:08;;;;;;;21.73;11.65;;;0.10;99.90;;;;;;4992557;28;20026;-78
2021/01/16 01:59:36;;;;;;;26.95;14.05;;;0.10;99.90;;;;;;4991147;28;20050;-78
2021/01/16 02:02:04;;;;;;;23.10;12.30;;;0.10;99.90;;;;;;4993263;28;20038;-78
2021/01/16 02:04:32;;;;;;;27.88;13.20;;;0.10;99.90;;;;;;5006609;28;20037;-78
2021/01/16 02:07:00;;;;;;;25.85;13.02;;;0.10;99.90;;;;;;4981511;28;20468;-78
2021/01/16 02:09:27;;;;;;;27.73;13.80;;;0.10;99.90;;;;;;4992252;28;20038;-79
2021/01/16 02:11:54;;;;;;;24.02;13.18;;;0.10;99.90;;;;;;4992516;28;20035;-78
2021/01/16 02:14:33;;;;;;;24.02;13.18;;;0.10;99.90;;;;;;4992215;28;20464;-78
2021/01/16 02:17:04;;;;;;;22.23;12.27;;;0.10;99.90;;;;;;4992627;28;20027;-78
2021/01/16 02:19:45;;;;;;;22.45;13.15;;;0.00;99.90;;;;;;4991959;28;20049;-78
2021/01/16 02:22:13;;;;;;;25.08;13.27;;;0.00;99.90;;;;;;4994644;28;20030;-78
2021/01/16 02:24:50;;;;;;;24.35;12.65;;;0.00;99.90;;;;;;4996035;28;20041;-78
2021/01/16 02:27:35;;;;;;;27.02;14.10;;;0.00;99.90;;;;;;4996699;28;20460;-78
2021/01/16 02:30:03;;;;;;;21.20;12.82;;;0.00;99.90;;;;;;4996420;28;20042;-78
2021/01/16 02:32:34;;;;;;;24.25;11.85;;;0.00;99.90;;;;;;4995340;28;20042;-78
2021/01/16 02:35:04;;;;;;;24.30;12.30;;;0.00;99.90;;;;;;4996183;28;20399;-78
2021/01/16 02:37:36;;;;;;;27.60;14.32;;;0.00;99.90;;;;;;4995727;28;20042;-78
2021/01/16 02:40:20;;;;;;;24.30;13.05;;;0.10;99.90;;;;;;4996042;28;20042;-78
2021/01/16 02:43:01;;;;;;;23.52;12.80;;;0.10;99.90;;;;;;4996269;28;20487;-78
2021/01/16 02:45:36;;;;;;;24.55;12.30;;;0.10;99.90;;;;;;4995612;28;20045;-78
2021/01/16 02:48:26;;;;;;;22.15;12.25;;;0.10;99.90;;;;;;5000893;28;20030;-78
2021/01/16 02:50:54;;;;;;;23.55;11.82;;;0.20;99.90;;;;;;5009437;28;20031;-78
2021/01/16 02:53:24;;;;;;;21.38;11.90;;;0.10;99.90;;;;;;4994649;28;20054;-78
2021/01/16 02:55:53;;;;;;;23.83;11.35;;;0.10;99.90;;;;;;4995652;28;20471;-78
2021/01/16 02:58:20;;;;;;;24.70;13.25;;;0.10;99.90;;;;;;5008830;28;20468;-79
2021/01/16 03:00:46;;;;;;;23.90;11.82;;;0.10;99.90;;;;;;4987077;28;20058;-78
2021/01/16 03:03:13;;;;;;;23.65;13.65;;;0.00;99.90;;;;;;4995331;28;20045;-78
2021/01/16 03:05:39;;;;;;;19.23;11.20;;;0.00;99.90;;;;;;4995255;28;20030;-78
2021/01/16 03:08:07;;;;;;;25.13;13.02;;;0.10;99.90;;;;;;4995635;28;20203;-78
2021/01/16 03:10:35;;;;;;;19.35;11.32;;;0.00;99.90;;;;;;4995230;28;20031;-78
2021/01/16 03:13:01;;;;;;;21.40;12.45;;;0.10;99.90;;;;;;4997321;28;20030;-78
2021/01/16 03:15:28;;;;;;;22.55;12.65;;;0.00;99.90;;;;;;5014690;28;20037;-78
2021/01/16 03:17:56;;;;;;;24.17;12.63;;;0.00;99.90;;;;;;4997250;28;20030;-78
2021/01/16 03:20:27;;;;;;;23.85;13.05;;;0.00;99.90;;;;;;4994893;28;20395;-78
2021/01/16 03:22:58;;;;;;;24.90;12.07;;;0.00;99.90;;;;;;5005094;28;20041;-78
2021/01/16 03:25:26;;;;;;;;;;;0.00;99.90;;;;;;4998882;28;20050;-78
2021/01/16 03:27:56;;;;;;;22.80;12.43;;;0.00;99.90;;;;;;4994938;28;19910;-78
2021/01/16 03:30:23;;;;;;;23.38;12.50;;;0.00;99.90;;;;;;4995011;28;20033;-78
2021/01/16 03:32:51;;;;;;;25.88;12.38;;;0.00;99.90;;;;;;4994934;28;20053;-78
2021/01/16 03:35:24;;;;;;;21.23;13.25;;;0.00;99.90;;;;;;4995017;28;20391;-78
2021/01/16 03:37:50;;;;;;;25.48;13.27;;;0.10;99.90;;;;;;4994692;28;20053;-78
2021/01/16 03:40:17;;;;;;;25.00;12.25;;;0.10;99.90;;;;;;4995466;28;20142;-78
2021/01/16 03:42:43;;;;;;;25.25;12.40;;;0.10;99.90;;;;;;4994353;28;20037;-78
2021/01/16 03:45:13;;;;;;;21.30;12.55;;;0.20;99.90;;;;;;4996054;28;20108;-78
2021/01/16 03:47:39;;;;;;;23.25;12.73;;;0.20;99.90;;;;;;5005278;28;20030;-78
2021/01/16 03:50:06;;;;;;;23.92;11.85;;;0.20;99.90;;;;;;4995513;28;20034;-78
2021/01/16 03:52:35;;;;;;;23.15;13.73;;;0.20;99.90;;;;;;4994575;28;20387;-78
2021/01/16 03:55:03;;;;;;;22.42;13.10;;;0.20;99.90;;;;;;4977661;28;20468;-78
2021/01/16 03:57:30;;;;;;;28.05;12.38;;;0.20;99.90;;;;;;4993829;28;20049;-78
2021/01/16 03:59:56;;;;;;;23.70;12.32;;;0.30;99.90;;;;;;4994672;28;20042;-78
2021/01/16 04:02:22;;;;;;;24.08;12.95;;;0.20;99.90;;;;;;4994242;28;20383;-78
2021/01/16 04:04:49;;;;;;;22.95;12.85;;;0.20;99.90;;;;;;5013647;28;20038;-78
2021/01/16 04:07:16;;;;;;;22.23;13.50;;;0.20;99.90;;;;;;4994121;28;20373;-78
2021/01/16 04:09:45;;;;;;;23.63;13.25;;;0.20;99.90;;;;;;4993992;28;20279;-78
2021/01/16 04:12:12;;;;;;;25.38;12.50;;;0.20;99.90;;;;;;4994173;28;20031;-78
2021/01/16 04:14:38;;;;;;;23.65;12.27;;;0.20;99.90;;;;;;4993747;28;20034;-77
2021/01/16 04:17:09;;;;;;;22.00;13.38;;;0.20;99.90;;;;;;4994202;28;20050;-77
2021/01/16 04:19:36;;;;;;;24.10;12.63;;;0.20;99.90;;;;;;4993795;28;20034;-77
2021/01/16 04:22:03;;;;;;;22.02;11.25;;;0.20;99.90;;;;;;4993992;28;20400;-77
2021/01/16 04:24:30;;;;;;;22.80;12.40;;;0.20;99.90;;;;;;4994205;28;20038;-77
2021/01/16 04:26:56;;;;;;;26.23;13.15;;;0.10;99.90;;;;;;4993929;28;20035;-77
2021/01/16 04:29:22;;;;;;;24.83;12.52;;;0.10;99.90;;;;;;4993876;28;20464;-77
2021/01/16 04:31:49;;;;;;;25.35;14.23;;;0.20;99.90;;;;;;4994267;28;20042;-77
2021/01/16 04:34:16;;;;;;;22.20;13.48;;;0.20;99.90;;;;;;4993929;28;20038;-77
2021/01/16 04:36:43;;;;;;;23.15;12.23;;;0.10;99.90;;;;;;4991990;28;20051;-77
2021/01/16 04:39:09;;;;;;;26.40;14.10;;;0.10;99.90;;;;;;4993896;28;20079;-77
2021/01/16 04:41:36;;;;;;;27.17;13.05;;;0.10;99.90;;;;;;4993627;28;20052;-77
2021/01/16 04:44:03;;;;;;;21.17;12.13;;;0.10;99.90;;;;;;4993282;28;20048;-77
2021/01/16 04:46:30;;;;;;;25.30;12.73;;;0.10;99.90;;;;;;4992314;28;20031;-77
2021/01/16 04:48:59;;;;;;;23.73;12.05;;;0.10;99.90;;;;;;4993383;28;20057;-77
2021/01/16 04:51:31;;;;;;;23.25;12.18;;;0.00;99.90;;;;;;4992776;28;20053;-77
2021/01/16 04:53:59;;;;;;;19.80;12.30;;;0.00;99.90;;;;;;5003931;28;20033;-77
2021/01/16 04:56:30;;;;;;;23.55;12.30;;;0.00;99.90;;;;;;5009712;28;20464;-78
2021/01/16 04:58:56;;;;;;;27.35;13.98;;;0.00;99.90;;;;;;4994244;28;20069;-77
2021/01/16 05:01:26;;;;;;;25.85;13.80;;;0.00;99.90;;;;;;4993225;28;20383;-78
2021/01/16 05:03:55;;;;;;;24.67;13.60;;;0.00;99.90;;;;;;4993038;28;20038;-78
2021/01/16 05:06:25;;;;;;;22.20;13.00;;;0.00;99.90;;;;;;4993431;28;20057;-78
2021/01/16 05:08:54;;;;;;;26.50;13.25;;;0.00;99.90;;;;;;4993663;28;20456;-78
2021/01/16 05:11:32;;;;;;;22.25;12.50;;;0.00;99.90;;;;;;4993405;28;20388;-77
2021/01/16 05:14:17;;;;;;;27.23;14.05;;;0.00;99.90;;;;;;5013008;28;20025;-77
2021/01/16 05:16:56;;;;;;;24.60;12.45;;;0.10;99.90;;;;;;4990173;28;20058;-77
2021/01/16 05:19:27;;;;;;;25.05;13.65;;;0.10;99.90;;;;;;4992684;28;20035;-78
2021/01/16 05:21:55;;;;;;;30.77;13.75;;;0.10;99.90;;;;;;4993396;28;20065;-77
2021/01/16 05:24:22;;;;;;;27.25;13.77;;;0.10;99.90;;;;;;4975631;28;20042;-77
2021/01/16 05:26:54;;;;;;;25.73;13.38;;;0.00;99.90;;;;;;4992892;28;20073;-77
2021/01/16 05:29:23;;;;;;;21.55;13.13;;;0.00;99.90;;;;;;5006339;28;20049;-76
2021/01/16 05:31:51;;;;;;;20.80;11.38;;;0.00;99.90;;;;;;4993233;28;20050;-78
2021/01/16 05:34:18;;;;;;;20.52;11.75;;;0.10;99.90;;;;;;4993423;28;20094;-76
2021/01/16 05:36:48;;;;;;;19.88;10.32;;;0.10;99.90;;;;;;4992513;28;20038;-77
2021/01/16 05:39:16;;;;;;;18.25;8.93;;;0.10;99.90;;;;;;4975876;28;20038;-76
2021/01/16 05:41:43;;;;;;;18.10;9.27;;;0.20;99.90;;;;;;4992502;28;20252;-77
2021/01/16 05:44:10;;;;;;;16.67;9.90;;;0.20;99.90;;;;;;4993198;28;20022;-77
2021/01/16 05:46:37;;;;;;;17.85;9.70;;;0.20;99.90;;;;;;4992439;28;20057;-77
2021/01/16 05:49:04;;;;;;;16.83;9.70;;;0.20;99.90;;;;;;4993167;28;20375;-77
2021/01/16 05:51:30;;;;;;;15.68;9.73;;;0.20;99.90;;;;;;4992555;28;20038;-77
2021/01/16 05:53:57;;;;;;;17.30;8.75;;;0.10;99.90;;;;;;4992224;28;20500;-77
2021/01/16 05:56:24;;;;;;;17.45;9.23;;;0.10;99.90;;;;;;4993278;28;20022;-78
2021/01/16 05:58:51;;;;;;;16.17;8.93;;;0.10;99.90;;;;;;4995333;28;20038;-77
2021/01/16 06:01:22;;;;;;;13.63;7.30;;;0.10;99.90;;;;;;4996327;28;20069;-78
2021/01/16 06:03:55;;;;;;;15.70;8.30;;;0.10;99.90;;;;;;4996239;28;20042;-76
2021/01/16 06:06:22;;;;;;;14.80;8.18;;;0.10;99.90;;;;;;4996770;28;20030;-77
2021/01/16 06:08:54;;;;;;;13.43;7.63;;;0.10;99.90;;;;;;4979485;28;20031;-77
2021/01/16 06:11:21;;;;;;;9.70;5.30;;;0.00;99.90;;;;;;5003541;28;20032;-77
2021/01/16 06:13:48;;;;;;;13.27;6.45;;;0.00;99.90;;;;;;4999752;28;20033;-78
2021/01/16 06:16:19;;;;;;;13.82;7.47;;;0.00;99.90;;;;;;4996462;28;20041;-77
2021/01/16 06:18:53;;;;;;;15.38;6.85;;;0.00;99.90;;;;;;4995598;28;20212;-77
2021/01/16 06:21:26;;;;;;;14.80;7.10;;;0.00;99.90;;;;;;4996562;28;20502;-77
2021/01/16 06:23:55;;;;;;;14.38;7.40;;;0.00;99.90;;;;;;4996525;28;20039;-77
2021/01/16 06:26:21;;;;;;;13.68;7.93;;;0.00;99.90;;;;;;4996285;28;20042;-78
2021/01/16 06:29:00;;;;;;;14.13;7.53;;;-0.10;99.90;;;;;;4996040;28;20049;-78
2021/01/16 06:31:32;;;;;;;13.00;7.22;;;-0.10;99.90;;;;;;4994027;28;20053;-77
2021/01/16 06:34:08;;;;;;;13.77;7.47;;;-0.10;99.90;;;;;;4996300;28;20027;-77
2021/01/16 06:36:36;;;;;;;14.75;7.75;;;-0.10;99.90;;;;;;5015459;28;20375;-77
2021/01/16 06:39:07;;;;;;;15.45;7.90;;;-0.10;99.90;;;;;;4996170;28;20027;-77
2021/01/16 06:41:38;;;;;;;;;;;-0.10;99.90;;;;;;4996074;28;20038;-77
2021/01/16 06:44:14;;;;;;;12.93;7.13;;;-0.10;99.90;;;;;;4995830;28;19914;-77
2021/01/16 06:46:42;;;;;;;11.45;6.53;;;-0.20;99.90;;;;;;4995745;28;20038;-78
2021/01/16 06:49:23;;;;;;;14.93;7.53;;;-0.10;99.90;;;;;;4995920;28;20022;-78
2021/01/16 06:51:54;;;;;;;13.73;7.15;;;-0.20;99.90;;;;;;4995881;28;20042;-77
2021/01/16 06:54:37;;;;;;;11.60;6.35;;;-0.20;99.90;;;;;;4996039;28;20037;-77
2021/01/16 06:57:11;;;;;;;16.92;7.53;;;-0.20;99.90;;;;;;4995271;28;20476;-77
2021/01/16 06:59:39;;;;;;;13.85;6.97;;;-0.20;99.90;;;;;;4995366;28;20045;-78
2021/01/16 07:02:31;;;;;;;14.70;7.10;;;-0.20;99.90;;;;;;4995463;28;20038;-77
2021/01/16 07:04:58;;;;;;;10.85;6.82;;;-0.20;99.90;;;;;;4995823;28;20037;-77
2021/01/16 07:07:30;;;;;;;10.82;6.18;;;-0.20;99.90;;;;;;4995312;28;20046;-77
2021/01/16 07:10:13;;;;;;;14.07;6.78;;;-0.20;99.90;;;;;;4994986;28;20045;-78
2021/01/16 07:12:46;;;;;;;12.52;7.28;;;-0.20;99.90;;;;;;4995612;28;20030;-77
2021/01/16 07:15:13;;;;;;;10.95;6.43;;;-0.20;99.90;;;;;;4995809;28;20034;-77
2021/01/16 07:17:39;;;;;;;12.27;6.93;;;-0.20;99.90;;;;;;4995732;28;20034;-77
2021/01/16 07:20:07;;;;;;;11.75;6.15;;;-0.30;99.90;;;;;;4995412;28;20498;-77
2021/01/16 07:22:41;;;;;;;12.68;6.63;;;-0.30;99.90;;;;;;4994971;28;20038;-78
2021/01/16 07:25:12;;;;;;;11.60;6.38;;;-0.30;99.90;;;;;;4995717;28;20058;-77
2021/01/16 07:27:39;;;;;;;13.38;7.47;;;-0.30;99.90;;;;;;4995311;28;20034;-77
2021/01/16 07:30:13;;;;;;;13.25;7.15;;;-0.30;99.90;;;;;;4995243;28;20026;-77
2021/01/16 07:32:44;;;;;;;12.23;6.50;;;-0.30;99.90;;;;;;4994719;28;20404;-77
2021/01/16 07:35:16;;;;;;;12.98;7.00;;;-0.30;99.90;;;;;;4995272;28;20045;-77
2021/01/16 07:37:47;;;;;;;12.23;6.97;;;-0.30;99.90;;;;;;4994972;28;20037;-77
2021/01/16 07:40:21;;;;;;;13.35;7.95;;;-0.30;99.90;;;;;;4992046;28;20034;-77
2021/01/16 07:42:49;;;;;;;10.73;6.95;;;-0.30;99.90;;;;;;5008972;28;20034;-76
2021/01/16 07:45:29;;;;;;;12.18;6.50;;;-0.30;99.90;;;;;;4995444;28;20026;-77
2021/01/16 07:48:04;;;;;;;9.02;5.82;;;-0.20;99.90;;;;;;4994630;28;20490;-77
2021/01/16 07:50:35;;;;;;;14.02;7.65;;;-0.20;99.90;;;;;;4994505;28;20038;-77
2021/01/16 07:53:07;;;;;;;11.50;5.50;;;-0.30;99.90;;;;;;4994631;28;20053;-77
2021/01/16 07:55:36;;;;;;;12.38;6.00;;;-0.30;99.90;;;;;;4994364;28;20042;-77
2021/01/16 07:58:21;;;;;;;26.27;12.32;;;-0.30;99.90;;;;;;5006117;28;20030;-77
2021/01/16 08:00:59;;;;;;;21.45;12.05;;;-0.30;99.90;;;;;;4994234;28;20045;-77
2021/01/16 08:03:49;;;;;;;23.40;10.82;;;-0.20;99.90;;;;;;5008978;28;20381;-77
2021/01/16 08:06:31;;;;;;;21.13;10.10;;;-0.20;99.90;;;;;;5002998;28;20530;-77
2021/01/16 08:09:02;;;;;;;;;;;-0.20;99.90;;;;;;5005390;28;20036;-77
2021/01/16 08:11:30;;;;;;;16.17;8.20;;;-0.20;99.90;;;;;;4999756;28;19909;-78
2021/01/16 08:14:01;;;;;;;17.13;8.77;;;-0.20;99.90;;;;;;4994268;28;20629;-77
2021/01/16 08:16:28;;;;;;;12.60;8.00;;;-0.20;99.90;;;;;;4976763;28;20041;-78
2021/01/16 08:19:13;;;;;;;12.63;7.03;;;-0.10;99.90;;;;;;4994149;28;20027;-76
2021/01/16 08:21:56;;;;;;;33.80;15.00;;;-0.10;99.90;;;;;;4993953;28;20456;-77
2021/01/16 08:24:27;;;;;;;14.15;8.25;;;-0.20;99.90;;;;;;4994142;28;20469;-77
2021/01/16 08:27:03;;;;;;;;;;;-0.10;99.90;;;;;;4994227;28;20053;-77
2021/01/16 08:29:31;;;;;;;14.70;7.50;;;-0.10;99.90;;;;;;4993477;28;20363;-77
2021/01/16 08:32:07;;;;;;;14.95;7.22;;;-0.10;99.90;;;;;;4993892;28;20045;-77
2021/01/16 08:34:52;;;;;;;15.98;7.55;;;-0.10;99.90;;;;;;4993818;28;20034;-77
2021/01/16 08:37:29;;;;;;;28.63;13.60;;;-0.10;99.90;;;;;;4993962;28;20460;-77
2021/01/16 08:39:55;;;;;;;23.10;12.93;;;0.00;99.90;;;;;;4993753;28;20034;-77
2021/01/16 08:42:25;;;;;;;16.98;8.50;;;0.00;99.90;;;;;;4993489;28;20065;-77
2021/01/16 08:44:53;;;;;;;28.15;13.57;;;-0.10;99.90;;;;;;4993068;28;20034;-77
2021/01/16 08:47:19;;;;;;;18.05;9.73;;;0.00;99.90;;;;;;4993554;28;20041;-77
2021/01/16 08:49:46;;;;;;;12.90;7.35;;;0.00;99.90;;;;;;4992060;28;20392;-77
2021/01/16 08:52:25;;;;;;;13.88;8.05;;;-0.10;99.90;;;;;;4991764;28;20054;-76
2021/01/16 08:54:59;;;;;;;13.98;7.20;;;-0.10;99.90;;;;;;4993159;28;20416;-77
2021/01/16 08:57:30;;;;;;;13.55;7.22;;;-0.10;99.90;;;;;;4993550;28;20026;-77
2021/01/16 09:00:12;;;;;;;17.50;9.23;;;0.00;99.90;;;;;;4993577;28;20042;-77
2021/01/16 09:02:38;;;;;;;13.52;7.43;;;0.00;99.90;;;;;;4992890;28;20472;-76
2021/01/16 09:05:24;;;;;;;14.73;8.50;;;0.00;99.90;;;;;;4994670;28;20033;-76
2021/01/16 09:07:51;;;;;;;11.95;7.13;;;0.00;99.90;;;;;;4997231;28;20037;-76
2021/01/16 09:10:24;;;;;;;14.00;7.55;;;0.00;99.90;;;;;;4975762;28;20035;-76
2021/01/16 09:12:51;;;;;;;13.77;7.97;;;0.00;99.90;;;;;;4992889;28;20038;-76
2021/01/16 09:15:18;;;;;;;11.00;7.32;;;0.00;99.90;;;;;;4992624;28;20046;-76
2021/01/16 09:17:59;;;;;;;12.73;6.95;;;0.00;99.90;;;;;;4992978;28;20027;-77
2021/01/16 09:20:26;;;;;;;13.43;7.55;;;0.10;99.90;;;;;;4995566;28;20499;-77
2021/01/16 09:22:52;;;;;;;14.48;7.30;;;0.10;99.90;;;;;;4992322;28;20593;-76
2021/01/16 09:25:23;;;;;;;14.05;8.55;;;0.10;99.90;;;;;;4992695;28;20055;-76
2021/01/16 09:27:50;;;;;;;11.50;6.93;;;0.20;99.90;;;;;;4993118;28;20144;-76
2021/01/16 09:30:22;;;;;;;15.35;8.48;;;0.20;99.90;;;;;;5001193;28;20047;-77
2021/01/16 09:32:50;;;;;;;14.68;8.05;;;0.20;99.90;;;;;;5006277;28;20049;-77
2021/01/16 09:35:39;;;;;;;55.97;27.00;;;0.30;99.90;;;;;;5003284;28;20042;-77
2021/01/16 09:38:36;;;;;;;14.32;9.07;;;0.30;99.90;;;;;;4995819;28;20476;-76
2021/01/16 09:41:02;;;;;;;17.95;10.73;;;0.20;99.90;;;;;;4986377;28;20060;-76
2021/01/16 09:43:38;;;;;;;15.73;8.90;;;0.30;99.90;;;;;;4992601;28;20053;-76
2021/01/16 09:46:04;;;;;;;13.13;7.13;;;0.30;99.90;;;;;;4993217;28;20043;-76
2021/01/16 09:48:30;;;;;;;10.32;6.05;;;0.30;99.90;;;;;;4992496;28;20361;-76
2021/01/16 09:51:02;;;;;;;14.30;6.28;;;0.30;99.90;;;;;;4993048;28;20369;-76
2021/01/16 09:53:30;;;;;;;8.65;5.10;;;0.30;99.90;;;;;;4992711;28;20038;-76
2021/01/16 09:55:57;;;;;;;10.52;5.53;;;0.30;99.90;;;;;;4992544;28;20053;-76
2021/01/16 09:58:42;;;;;;;10.73;5.55;;;0.20;99.90;;;;;;4992718;28;20038;-77
2021/01/16 10:01:16;;;;;;;9.30;4.90;;;0.30;99.90;;;;;;4991574;28;20403;-78
2021/01/16 10:03:43;;;;;;;9.98;5.68;;;0.30;99.90;;;;;;4992440;28;20041;-78
2021/01/16 10:06:11;;;;;;;10.32;6.43;;;0.40;99.90;;;;;;4992828;28;20041;-77
2021/01/16 10:08:40;;;;;;;10.35;6.03;;;0.30;99.90;;;;;;4992504;28;20037;-77
2021/01/16 10:11:07;;;;;;;9.82;6.30;;;0.40;99.90;;;;;;4992729;28;20042;-77
2021/01/16 10:13:37;;;;;;;10.05;5.72;;;0.40;99.90;;;;;;4992251;28;20511;-78
2021/01/16 10:16:06;;;;;;;10.82;5.70;;;0.30;99.90;;;;;;4992776;28;20034;-77
2021/01/16 10:18:34;;;;;;;13.50;6.55;;;0.30;99.90;;;;;;4992494;28;20037;-78
2021/01/16 10:21:07;;;;;;;12.20;6.28;;;0.40;99.90;;;;;;4999155;28;20110;-77
2021/01/16 10:23:43;;;;;;;9.57;5.68;;;0.50;99.90;;;;;;5001533;28;20039;-77
2021/01/16 10:26:14;;;;;;;9.93;5.55;;;0.50;99.90;;;;;;4992397;28;20069;-77
2021/01/16 10:29:05;;;;;;;9.18;5.05;;;0.50;99.70;;;;;;4992079;28;20396;-77
2021/01/16 10:31:32;;;;;;;9.50;5.13;;;0.50;99.90;;;;;;4990746;28;20042;-78
2021/01/16 10:34:06;;;;;;;11.30;5.30;;;0.50;98.70;;;;;;4992427;28;20034;-77
2021/01/16 10:36:33;;;;;;;8.90;4.93;;;0.50;99.00;;;;;;4992125;28;20038;-78
2021/01/16 10:39:09;;;;;;;7.72;5.00;;;0.50;98.70;;;;;;4977981;28;20038;-77
2021/01/16 10:41:36;;;;;;;7.43;5.00;;;0.40;99.30;;;;;;5008039;28;20475;-77
2021/01/16 10:44:11;;;;;;;9.20;5.68;;;0.40;99.70;;;;;;4976873;28;20046;-77
2021/01/16 10:46:38;;;;;;;7.90;4.70;;;0.40;99.70;;;;;;4995629;28;20026;-78
2021/01/16 10:49:30;;;;;;;6.47;4.22;;;0.40;99.30;;;;;;4995770;28;20030;-76
2021/01/16 10:51:57;;;;;;;7.38;4.57;;;0.40;99.30;;;;;;4995572;28;20030;-77
2021/01/16 10:54:24;;;;;;;8.95;5.25;;;0.40;99.40;;;;;;4995783;28;20042;-76
2021/01/16 10:57:00;;;;;;;7.63;5.10;;;0.50;99.90;;;;;;4995607;28;20030;-76
2021/01/16 10:59:28;;;;;;;10.25;6.03;;;0.50;99.90;;;;;;4995425;28;20093;-76
2021/01/16 11:01:54;;;;;;;9.40;5.30;;;0.50;99.90;;;;;;4995273;28;20070;-78
2021/01/16 11:04:29;;;;;;;9.45;5.38;;;0.50;99.90;;;;;;4995552;28;20034;-76
2021/01/16 11:07:00;;;;;;;8.80;5.43;;;0.50;99.90;;;;;;4995486;28;20490;-76
2021/01/16 11:09:32;;;;;;;8.40;5.00;;;0.60;99.90;;;;;;4996005;28;20058;-75
2021/01/16 11:12:02;;;;;;;9.73;5.97;;;0.70;98.50;;;;;;4995545;28;20034;-75
2021/01/16 11:14:35;;;;;;;8.60;5.03;;;0.50;98.50;;;;;;4995480;28;20030;-76
2021/01/16 11:17:04;;;;;;;8.18;4.40;;;0.60;99.90;;;;;;4995330;28;20038;-76
2021/01/16 11:19:39;;;;;;;8.43;5.15;;;0.60;98.60;;;;;;4995230;28;20029;-76
2021/01/16 11:22:13;;;;;;;9.07;5.15;;;0.60;99.20;;;;;;5011585;28;20475;-75
2021/01/16 11:24:52;;;;;;;8.13;4.53;;;0.50;98.60;;;;;;4994995;28;20042;-76
2021/01/16 11:27:20;;;;;;;8.13;4.75;;;0.60;99.20;;;;;;4978439;28;20050;-76
2021/01/16 11:29:47;;;;;;;9.65;5.18;;;0.70;99.10;;;;;;4974568;28;20038;-76
2021/01/16 11:32:15;;;;;;;8.38;4.75;;;0.70;98.80;;;;;;4975512;28;20468;-76
2021/01/16 11:35:01;;;;;;;9.23;5.53;;;0.60;98.20;;;;;;4974094;28;20035;-77
2021/01/16 11:37:47;;;;;;;6.68;4.30;;;0.60;98.30;;;;;;4974542;28;20043;-77
2021/01/16 11:40:30;;;;;;;8.73;5.32;;;0.60;97.80;;;;;;4971863;28;20392;-78
2021/01/16 11:43:05;;;;;;;7.38;4.57;;;0.70;98.00;;;;;;4973351;28;20035;-77
2021/01/16 11:45:33;;;;;;;8.68;4.60;;;0.80;95.80;;;;;;4966671;28;20046;-77
2021/01/16 11:48:00;;;;;;;9.00;4.68;;;0.80;93.60;;;;;;4968275;28;20040;-77
2021/01/16 11:50:32;;;;;;;9.98;5.05;;;0.70;94.80;;;;;;4970871;28;20035;-77
2021/01/16 11:53:12;;;;;;;9.80;5.15;;;0.80;95.10;;;;;;4971823;28;20388;-78
2021/01/16 11:55:39;;;;;;;9.50;5.45;;;0.80;94.90;;;;;;4956400;28;20047;-77
2021/01/16 11:58:06;;;;;;;7.70;5.25;;;0.80;94.20;;;;;;4973751;28;20027;-78
2021/01/16 12:00:33;;;;;;;12.10;6.90;;;0.70;94.00;;;;;;4970996;28;20035;-77
2021/01/16 12:03:00;;;;;;;6.65;4.15;;;0.70;94.00;;;;;;4975102;28;20072;-77
2021/01/16 12:05:26;;;;;;;9.10;5.35;;;0.60;94.10;;;;;;4974102;28;20046;-78
2021/01/16 12:07:54;;;;;;;11.10;5.97;;;0.70;94.10;;;;;;4974133;28;20030;-78
2021/01/16 12:10:30;;;;;;;8.00;4.30;;;0.70;94.10;;;;;;4974791;28;20035;-78
2021/01/16 12:12:57;;;;;;;10.20;5.90;;;0.60;94.50;;;;;;4974353;28;20039;-77
2021/01/16 12:15:25;;;;;;;8.82;4.82;;;0.60;95.80;;;;;;4974810;28;20046;-77
2021/01/16 12:17:54;;;;;;;12.15;4.88;;;0.60;95.80;;;;;;4974329;28;20034;-77
2021/01/16 12:20:26;;;;;;;9.02;4.93;;;0.50;96.10;;;;;;4972657;28;20035;-77
2021/01/16 12:23:01;;;;;;;10.40;4.45;;;0.50;96.50;;;;;;4973743;28;20042;-77
2021/01/16 12:25:33;;;;;;;8.10;4.72;;;0.50;95.90;;;;;;4978584;28;20521;-78
2021/01/16 12:28:00;;;;;;;7.10;4.10;;;0.50;95.60;;;;;;4994070;28;20046;-78
2021/01/16 12:30:38;;;;;;;8.63;4.88;;;0.60;95.40;;;;;;4994215;28;20038;-78
2021/01/16 12:33:04;;;;;;;6.70;4.28;;;0.60;95.40;;;;;;4994768;28;20034;-78
2021/01/16 12:35:31;;;;;;;6.70;4.25;;;0.60;94.60;;;;;;4993629;28;20026;-78
2021/01/16 12:37:58;;;;;;;8.02;4.10;;;0.50;93.80;;;;;;5013083;28;20034;-78
2021/01/16 12:40:25;;;;;;;6.75;3.63;;;0.50;94.60;;;;;;4994443;28;20463;-78
2021/01/16 12:42:52;;;;;;;7.13;4.13;;;0.50;95.00;;;;;;4976115;28;20046;-79
2021/01/16 12:45:21;;;;;;;7.63;3.85;;;0.60;94.80;;;;;;4993969;28;20039;-78
2021/01/16 12:47:52;;;;;;;7.82;4.43;;;0.60;94.50;;;;;;4993533;28;20478;-77
2021/01/16 12:50:21;;;;;;;13.40;7.65;;;0.60;93.30;;;;;;4993762;28;20031;-78
2021/01/16 12:52:49;;;;;;;9.63;5.35;;;0.50;93.00;;;;;;4993083;28;20045;-78
2021/01/16 12:55:20;;;;;;;5.97;3.63;;;0.50;92.70;;;;;;4981198;28;20050;-78
2021/01/16 12:57:51;;;;;;;9.75;6.80;;;0.50;92.60;;;;;;5002095;28;20034;-78
2021/01/16 13:00:22;;;;;;;6.95;3.88;;;0.50;93.50;;;;;;4975619;28;20049;-78